createdAt,value
2022-12-03T00:02:13.362Z,9.93
2022-12-03T00:04:39.827Z,8.55
2022-12-03T00:07:06.173Z,6.04
2022-12-03T00:09:32.503Z,5.89
2022-12-03T00:11:58.915Z,6.40
2022-12-03T00:14:25.429Z,6.33
2022-12-03T00:16:51.787Z,6.48
2022-12-03T00:19:18.141Z,5.79
2022-12-03T00:21:44.595Z,5.04
2022-12-03T00:24:11.105Z,5.19
2022-12-03T00:26:37.537Z,6.21
2022-12-03T00:29:03.900Z,5.65
2022-12-03T00:31:30.393Z,5.13
2022-12-03T00:33:56.792Z,4.54
2022-12-03T00:36:27.961Z,4.79
2022-12-03T00:38:54.436Z,5.95
2022-12-03T00:41:20.866Z,6.73
2022-12-03T00:43:47.210Z,5.58
2022-12-03T00:46:18.158Z,4.88
2022-12-03T00:48:47.779Z,5.07
2022-12-03T00:51:14.211Z,5.94
2022-12-03T00:53:43.031Z,6.35
2022-12-03T00:56:09.762Z,5.85
2022-12-03T00:58:36.239Z,4.32
2022-12-03T01:01:05.117Z,3.81
2022-12-03T01:03:31.459Z,5.31
2022-12-03T01:05:57.813Z,6.31
2022-12-03T01:08:24.227Z,5.03
2022-12-03T01:10:50.642Z,6.13
2022-12-03T01:13:17.028Z,5.98
2022-12-03T01:15:43.497Z,5.51
2022-12-03T01:18:12.434Z,5.49
2022-12-03T01:20:38.850Z,5.44
2022-12-03T01:23:05.326Z,5.78
2022-12-03T01:25:31.694Z,5.21
2022-12-03T01:27:58.137Z,4.88
2022-12-03T01:30:24.471Z,5.10
2022-12-03T01:32:50.898Z,4.61
2022-12-03T01:35:17.460Z,4.93
2022-12-03T01:37:44.202Z,4.82
2022-12-03T01:40:10.618Z,5.13
2022-12-03T01:42:36.958Z,6.40
2022-12-03T01:45:03.329Z,6.56
2022-12-03T01:47:29.742Z,6.23
2022-12-03T01:49:56.104Z,6.24
2022-12-03T01:52:22.565Z,5.74
2022-12-03T01:54:48.984Z,5.19
2022-12-03T01:57:15.357Z,4.65
2022-12-03T01:59:41.748Z,4.35
2022-12-03T02:02:08.168Z,4.07
2022-12-03T02:04:34.638Z,4.11
2022-12-03T02:07:00.973Z,4.38
2022-12-03T02:09:27.323Z,4.66
2022-12-03T02:12:04.401Z,5.03
2022-12-03T02:14:30.767Z,4.56
2022-12-03T02:16:57.153Z,4.09
2022-12-03T02:19:23.543Z,4.08
2022-12-03T02:21:50.127Z,4.23
2022-12-03T02:24:16.470Z,3.82
2022-12-03T02:26:42.812Z,3.90
2022-12-03T02:29:09.166Z,3.88
2022-12-03T02:31:35.595Z,3.32
2022-12-03T02:34:02.015Z,3.40
2022-12-03T02:36:28.372Z,3.27
2022-12-03T02:38:54.797Z,3.61
2022-12-03T02:41:21.183Z,4.81
2022-12-03T02:43:47.534Z,6.35
2022-12-03T02:46:22.744Z,5.80
2022-12-03T02:48:49.072Z,5.38
2022-12-03T02:51:15.454Z,5.80
2022-12-03T02:53:44.255Z,4.85
2022-12-03T02:56:10.641Z,4.43
2022-12-03T02:58:36.995Z,4.13
2022-12-03T03:01:03.408Z,3.79
2022-12-03T03:03:29.860Z,3.61
2022-12-03T03:05:56.245Z,3.50
2022-12-03T03:08:22.594Z,4.03
2022-12-03T03:10:48.954Z,4.23
2022-12-03T03:13:15.290Z,4.23
2022-12-03T03:15:41.844Z,4.70
2022-12-03T03:18:08.168Z,4.63
2022-12-03T03:20:39.324Z,4.04
2022-12-03T03:23:05.707Z,3.60
2022-12-03T03:25:32.263Z,4.03
2022-12-03T03:27:58.595Z,3.53
2022-12-03T03:30:25.007Z,3.77
2022-12-03T03:32:51.777Z,4.29
2022-12-03T03:35:18.130Z,4.76
2022-12-03T03:37:44.547Z,4.19
2022-12-03T03:40:10.951Z,3.97
2022-12-03T03:42:37.329Z,3.96
2022-12-03T03:45:03.765Z,4.19
2022-12-03T03:47:30.230Z,4.18
2022-12-03T03:49:56.589Z,5.01
2022-12-03T03:52:22.997Z,4.63
2022-12-03T03:54:49.399Z,4.82
2022-12-03T03:57:15.807Z,4.59
2022-12-03T03:59:42.130Z,4.27
2022-12-03T04:02:08.599Z,4.13
2022-12-03T04:04:35.008Z,4.23
2022-12-03T04:07:01.747Z,4.29
2022-12-03T04:09:28.278Z,4.49
2022-12-03T04:11:54.684Z,5.00
2022-12-03T04:14:20.995Z,5.11
2022-12-03T04:16:47.505Z,4.58
2022-12-03T04:19:13.922Z,4.73
2022-12-03T04:21:40.304Z,5.08
2022-12-03T04:24:06.679Z,4.82
2022-12-03T04:26:33.085Z,4.69
2022-12-03T04:28:59.608Z,5.38
2022-12-03T04:31:26.053Z,5.65
2022-12-03T04:33:52.453Z,5.11
2022-12-03T04:36:25.922Z,4.84
2022-12-03T04:38:52.321Z,5.36
2022-12-03T04:41:18.778Z,5.24
2022-12-03T04:43:45.347Z,4.97
2022-12-03T04:46:12.795Z,5.17
2022-12-03T04:48:39.620Z,5.46
2022-12-03T04:51:06.046Z,6.34
2022-12-03T04:53:33.715Z,6.18
2022-12-03T04:56:02.390Z,5.56
2022-12-03T04:58:28.839Z,5.26
2022-12-03T05:00:55.529Z,4.96
2022-12-03T05:03:21.993Z,5.31
2022-12-03T05:05:48.344Z,5.16
2022-12-03T05:08:14.742Z,4.99
2022-12-03T05:10:42.666Z,5.82
2022-12-03T05:13:08.995Z,5.67
2022-12-03T05:15:38.369Z,5.26
2022-12-03T05:18:07.022Z,4.74
2022-12-03T05:20:33.458Z,5.47
2022-12-03T05:22:59.821Z,5.02
2022-12-03T05:25:26.197Z,5.12
2022-12-03T05:27:54.729Z,5.10
2022-12-03T05:30:21.467Z,5.17
2022-12-03T05:32:47.836Z,5.27
2022-12-03T05:35:14.172Z,5.42
2022-12-03T05:37:40.593Z,5.67
2022-12-03T05:40:06.948Z,5.55
2022-12-03T05:42:33.297Z,5.79
2022-12-03T05:45:02.426Z,6.29
2022-12-03T05:47:28.823Z,5.80
2022-12-03T05:49:55.302Z,6.53
2022-12-03T05:52:21.625Z,6.82
2022-12-03T05:54:47.969Z,7.17
2022-12-03T05:57:14.411Z,7.75
2022-12-03T05:59:40.736Z,7.52
2022-12-03T06:02:10.255Z,6.86
2022-12-03T06:07:27.434Z,6.64
2022-12-03T06:09:53.939Z,6.42
2022-12-03T06:12:20.389Z,7.12
2022-12-03T06:14:46.917Z,6.96
2022-12-03T06:17:13.404Z,7.28
2022-12-03T06:19:39.912Z,7.66
2022-12-03T06:22:06.495Z,9.39
2022-12-03T06:24:33.098Z,8.66
2022-12-03T06:26:59.605Z,8.33
2022-12-03T06:29:28.005Z,7.91
2022-12-03T06:31:54.417Z,8.20
2022-12-03T06:34:20.909Z,8.51
2022-12-03T06:36:47.617Z,9.18
2022-12-03T06:39:14.959Z,9.39
2022-12-03T06:41:41.552Z,8.80
2022-12-03T06:44:08.003Z,8.57
2022-12-03T06:46:34.456Z,9.36
2022-12-03T06:49:00.926Z,9.98
2022-12-03T06:51:27.367Z,9.89
2022-12-03T06:53:53.855Z,9.27
2022-12-03T06:56:22.458Z,9.03
2022-12-03T06:58:49.139Z,9.48
2022-12-03T07:01:15.733Z,9.48
2022-12-03T07:03:42.244Z,9.65
2022-12-03T07:06:08.725Z,9.92
2022-12-03T07:08:35.441Z,9.57
2022-12-03T07:11:03.149Z,10.32
2022-12-03T07:13:29.624Z,10.50
2022-12-03T07:15:56.330Z,10.31
2022-12-03T07:18:23.316Z,11.35
2022-12-03T07:20:49.853Z,11.19
2022-12-03T07:23:16.324Z,11.86
2022-12-03T07:25:48.912Z,12.13
2022-12-03T07:28:15.640Z,11.34
2022-12-03T07:30:49.567Z,11.62
2022-12-03T07:33:16.140Z,12.10
2022-12-03T07:35:42.639Z,12.43
2022-12-03T07:38:09.347Z,12.30
2022-12-03T07:43:21.952Z,12.07
2022-12-03T07:45:57.819Z,12.09
2022-12-03T07:48:24.670Z,11.96
2022-12-03T07:50:58.447Z,12.35
2022-12-03T07:53:24.890Z,13.22
2022-12-03T07:55:51.353Z,13.04
2022-12-03T07:58:17.793Z,12.70
2022-12-03T08:00:44.277Z,12.64
2022-12-03T08:03:10.754Z,12.22
2022-12-03T08:05:37.230Z,12.50
2022-12-03T08:08:11.121Z,12.92
2022-12-03T08:10:41.010Z,12.81
2022-12-03T08:13:07.950Z,13.20
2022-12-03T08:15:39.289Z,12.64
2022-12-03T08:18:13.957Z,12.83
2022-12-03T08:20:40.401Z,12.98
2022-12-03T08:23:06.925Z,13.60
2022-12-03T08:25:33.392Z,13.55
2022-12-03T08:27:59.802Z,13.88
2022-12-03T08:30:26.783Z,14.03
2022-12-03T08:32:53.185Z,14.15
2022-12-03T08:35:23.435Z,13.69
2022-12-03T08:37:50.206Z,13.80
2022-12-03T08:40:25.327Z,13.87
2022-12-03T08:42:59.219Z,14.10
2022-12-03T08:48:15.879Z,15.02
2022-12-03T08:50:45.936Z,14.70
2022-12-03T08:58:54.206Z,14.14
2022-12-03T09:01:20.745Z,13.39
2022-12-03T09:03:47.262Z,13.78
2022-12-03T09:06:13.833Z,13.09
2022-12-03T09:08:40.318Z,14.38
2022-12-03T09:11:06.833Z,15.81
2022-12-03T09:13:36.008Z,16.83
2022-12-03T09:18:42.702Z,15.82
2022-12-03T09:21:09.226Z,15.19
2022-12-03T09:23:39.514Z,15.62
2022-12-03T09:26:05.911Z,14.98
2022-12-03T09:28:32.320Z,15.15
2022-12-03T09:33:41.206Z,15.49
2022-12-03T09:36:09.732Z,14.78
2022-12-03T09:38:37.442Z,14.85
2022-12-03T09:41:05.499Z,14.71
2022-12-03T09:44:02.892Z,14.29
2022-12-03T09:46:18.901Z,14.62
2022-12-03T09:48:47.426Z,14.73
2022-12-03T09:53:54.232Z,14.23
2022-12-03T09:56:20.839Z,14.52
2022-12-03T09:58:47.825Z,14.31
2022-12-03T10:01:18.277Z,14.33
2022-12-03T10:03:57.013Z,13.78
2022-12-03T10:06:23.813Z,13.59
2022-12-03T10:08:50.268Z,13.80
2022-12-03T10:11:17.440Z,14.45
2022-12-03T10:13:44.007Z,14.89
2022-12-03T10:16:11.787Z,14.04
2022-12-03T10:18:41.856Z,13.73
2022-12-03T10:21:08.530Z,13.57
2022-12-03T10:23:42.151Z,13.09
2022-12-03T10:26:08.634Z,13.27
2022-12-03T10:28:38.613Z,13.09
2022-12-03T10:31:05.062Z,13.50
2022-12-03T10:33:31.557Z,13.19
2022-12-03T10:35:58.295Z,12.92
2022-12-03T10:38:35.200Z,13.88
2022-12-03T10:41:06.572Z,13.79
2022-12-03T10:43:36.630Z,14.10
2022-12-03T10:46:08.718Z,14.45
2022-12-03T10:48:35.618Z,14.28
2022-12-03T10:51:02.196Z,13.60
2022-12-03T10:53:29.583Z,13.68
2022-12-03T10:55:57.396Z,14.53
2022-12-03T10:58:24.136Z,14.11
2022-12-03T11:00:50.882Z,14.33
2022-12-03T11:03:17.380Z,14.08
2022-12-03T11:05:44.147Z,14.32
2022-12-03T11:08:10.739Z,14.88
2022-12-03T11:10:37.235Z,14.31
2022-12-03T11:13:03.833Z,14.71
2022-12-03T11:15:30.308Z,14.82
2022-12-03T11:17:56.759Z,14.48
2022-12-03T11:20:23.339Z,14.78
2022-12-03T11:22:49.859Z,15.12
2022-12-03T11:25:19.372Z,14.77
2022-12-03T11:27:47.743Z,14.66
2022-12-03T11:30:14.196Z,14.60
2022-12-03T11:32:40.752Z,14.27
2022-12-03T11:35:07.323Z,14.15
2022-12-03T11:37:33.922Z,14.74
2022-12-03T11:40:00.422Z,16.04
2022-12-03T11:42:27.005Z,14.88
2022-12-03T11:44:53.513Z,14.53
2022-12-03T11:47:19.994Z,14.93
2022-12-03T11:49:46.515Z,14.26
2022-12-03T11:52:12.920Z,14.94
2022-12-03T11:54:39.454Z,14.95
2022-12-03T11:57:06.020Z,14.74
2022-12-03T12:02:13.330Z,14.54
2022-12-03T12:04:39.950Z,14.77
2022-12-03T12:07:06.467Z,14.96
2022-12-03T12:09:32.835Z,14.72
2022-12-03T12:11:59.512Z,14.43
2022-12-03T12:14:27.211Z,15.26
2022-12-03T12:16:53.770Z,14.96
2022-12-03T12:19:20.201Z,15.58
2022-12-03T12:21:46.749Z,15.21
2022-12-03T12:24:13.492Z,16.74
2022-12-03T12:26:40.310Z,16.81
2022-12-03T12:29:08.267Z,16.45
2022-12-03T12:31:35.840Z,16.71
2022-12-03T12:34:02.379Z,16.22
2022-12-03T12:36:31.294Z,16.37
2022-12-03T12:38:58.248Z,16.91
2022-12-03T12:44:05.098Z,16.86
2022-12-03T12:46:47.622Z,17.01
2022-12-03T12:49:23.778Z,16.18
2022-12-03T12:51:50.574Z,16.31
2022-12-03T12:54:17.081Z,17.05
2022-12-03T12:59:24.897Z,16.26
2022-12-03T13:01:51.697Z,16.41
2022-12-03T13:04:18.244Z,16.36
2022-12-03T13:06:44.718Z,16.46
2022-12-03T13:09:18.791Z,16.80
2022-12-03T13:11:46.242Z,16.59
2022-12-03T13:14:13.793Z,16.32
2022-12-03T13:16:40.370Z,17.14
2022-12-03T13:19:06.920Z,16.90
2022-12-03T13:21:37.259Z,17.04
2022-12-03T13:24:03.637Z,16.93
2022-12-03T13:26:38.782Z,16.81
2022-12-03T13:29:05.672Z,16.83
2022-12-03T13:31:32.305Z,17.39
2022-12-03T13:33:58.829Z,16.24
2022-12-03T13:36:25.384Z,16.88
2022-12-03T13:38:51.876Z,16.69
2022-12-03T13:41:18.508Z,17.18
2022-12-03T13:43:44.999Z,17.44
2022-12-03T13:46:11.613Z,17.35
2022-12-03T13:48:40.289Z,17.19
2022-12-03T13:51:06.806Z,17.51
2022-12-03T13:53:33.274Z,17.27
2022-12-03T13:55:59.866Z,16.91
2022-12-03T13:58:26.420Z,17.59
2022-12-03T14:00:52.993Z,17.60
2022-12-03T14:03:21.561Z,18.37
2022-12-03T14:05:48.194Z,18.07
2022-12-03T14:08:14.935Z,16.80
2022-12-03T14:10:41.550Z,17.00
2022-12-03T14:15:54.349Z,17.61
2022-12-03T14:18:28.073Z,17.32
2022-12-03T14:21:02.372Z,17.83
2022-12-03T14:23:31.342Z,17.34
2022-12-03T14:26:02.425Z,17.89
2022-12-03T14:28:28.970Z,17.83
2022-12-03T14:30:55.569Z,17.57
2022-12-03T14:33:22.083Z,18.02
2022-12-03T14:35:48.566Z,17.31
2022-12-03T14:38:17.108Z,17.25
2022-12-03T14:40:43.602Z,18.27
2022-12-03T14:43:10.129Z,18.38
2022-12-03T14:45:36.758Z,18.21
2022-12-03T14:48:03.334Z,17.46
2022-12-03T14:50:30.814Z,17.66
2022-12-03T14:52:57.281Z,18.03
2022-12-03T14:55:23.792Z,18.08
2022-12-03T14:57:52.220Z,17.62
2022-12-03T15:00:18.707Z,17.93
2022-12-03T15:02:45.330Z,18.00
2022-12-03T15:05:14.884Z,18.00
2022-12-03T15:07:41.593Z,17.82
2022-12-03T15:10:08.053Z,18.06
2022-12-03T15:12:34.516Z,17.66
2022-12-03T15:15:01.043Z,18.01
2022-12-03T15:28:29.075Z,18.45
2022-12-03T15:33:35.806Z,18.50
2022-12-03T15:38:42.699Z,19.25
2022-12-03T15:41:15.054Z,19.16
2022-12-03T15:43:59.550Z,19.32
2022-12-03T15:46:26.156Z,18.33
2022-12-03T15:48:52.766Z,18.10
2022-12-03T15:51:19.422Z,18.51
2022-12-03T15:53:45.905Z,18.66
2022-12-03T15:56:14.699Z,19.71
2022-12-03T15:58:41.137Z,19.48
2022-12-03T16:01:07.791Z,19.57
2022-12-03T16:03:34.553Z,20.70
2022-12-03T16:06:01.034Z,22.64
2022-12-03T16:08:30.483Z,19.45
2022-12-03T16:10:57.153Z,19.03
2022-12-03T16:13:23.651Z,18.71
2022-12-03T16:15:50.214Z,18.79
2022-12-03T16:18:16.691Z,18.55
2022-12-03T16:20:43.260Z,19.26
2022-12-03T16:23:12.161Z,19.31
2022-12-03T16:28:18.979Z,18.61
2022-12-03T16:30:45.522Z,18.99
2022-12-03T16:33:12.028Z,18.75
2022-12-03T16:35:38.612Z,19.21
2022-12-03T16:38:05.182Z,18.97
2022-12-03T16:40:31.652Z,19.26
2022-12-03T16:43:00.179Z,18.57
2022-12-03T16:45:26.759Z,19.23
2022-12-03T16:47:53.414Z,19.35
2022-12-03T16:50:27.340Z,19.37
2022-12-03T16:52:55.792Z,19.46
2022-12-03T16:55:22.250Z,18.95
2022-12-03T16:57:48.761Z,19.24
2022-12-03T17:00:15.306Z,19.39
2022-12-03T17:02:41.914Z,19.44
2022-12-03T17:05:08.500Z,20.40
2022-12-03T17:07:36.511Z,20.20
2022-12-03T17:10:10.597Z,20.26
2022-12-03T17:15:27.302Z,23.73
2022-12-03T17:17:55.366Z,22.99
2022-12-03T17:20:23.902Z,21.03
2022-12-03T17:22:50.385Z,20.28
2022-12-03T17:25:16.910Z,19.81
2022-12-03T17:27:45.397Z,19.83
2022-12-03T17:30:15.693Z,19.63
2022-12-03T17:32:42.207Z,19.21
2022-12-03T17:35:08.776Z,19.23
2022-12-03T17:37:35.315Z,18.75
2022-12-03T17:40:04.611Z,19.62
2022-12-03T17:42:34.633Z,20.33
2022-12-03T17:45:01.155Z,20.95
2022-12-03T17:47:35.307Z,20.37
2022-12-03T17:50:04.346Z,20.38
2022-12-03T17:52:31.058Z,20.72
2022-12-03T17:55:19.216Z,20.42
2022-12-03T17:57:45.415Z,20.65
2022-12-03T18:00:22.177Z,21.69
2022-12-03T18:02:48.704Z,20.09
2022-12-03T18:05:15.166Z,20.05
2022-12-03T18:07:41.860Z,19.56
2022-12-03T18:10:15.033Z,19.10
2022-12-03T18:12:41.635Z,20.06
2022-12-03T18:15:08.173Z,20.32
2022-12-03T18:17:36.835Z,20.15
2022-12-03T18:20:03.367Z,21.40
2022-12-03T18:22:29.787Z,21.18
2022-12-03T18:25:02.902Z,21.00
2022-12-03T18:27:29.424Z,21.27
2022-12-03T18:29:56.409Z,21.63
2022-12-03T18:32:29.182Z,21.40
2022-12-03T18:34:57.894Z,21.88
2022-12-03T18:37:25.248Z,22.57
2022-12-03T18:39:53.832Z,21.80
2022-12-03T18:45:08.166Z,21.36
2022-12-03T18:47:34.943Z,21.27
2022-12-03T18:50:01.422Z,21.14
2022-12-03T18:52:27.962Z,21.01
2022-12-03T18:54:54.549Z,22.05
2022-12-03T18:57:21.187Z,23.15
2022-12-03T18:59:48.481Z,24.13
2022-12-03T19:02:38.599Z,23.20
2022-12-03T19:05:09.697Z,22.96
2022-12-03T19:07:36.317Z,20.95
2022-12-03T19:10:02.811Z,21.74
2022-12-03T19:12:29.252Z,22.35
2022-12-03T19:14:55.653Z,23.15
2022-12-03T19:17:22.094Z,23.12
2022-12-03T19:19:48.510Z,22.74
2022-12-03T19:22:18.556Z,23.04
2022-12-03T19:24:44.890Z,22.46
2022-12-03T19:27:11.256Z,22.24
2022-12-03T19:29:39.127Z,22.87
2022-12-03T19:32:05.569Z,37.50
2022-12-03T19:34:32.021Z,37.58
2022-12-03T19:36:58.457Z,25.61
2022-12-03T19:39:25.912Z,26.26
2022-12-03T19:41:52.307Z,27.62
2022-12-03T19:44:18.699Z,28.98
2022-12-03T19:46:45.150Z,39.44
2022-12-03T19:49:11.531Z,34.48
2022-12-03T19:51:37.948Z,27.84
2022-12-03T19:54:04.434Z,23.67
2022-12-03T19:56:33.903Z,24.13
2022-12-03T19:59:00.502Z,25.03
2022-12-03T20:01:27.013Z,25.44
2022-12-03T20:03:53.701Z,23.62
2022-12-03T20:06:21.343Z,22.22
2022-12-03T20:08:47.731Z,22.35
2022-12-03T20:11:14.081Z,22.04
2022-12-03T20:13:40.524Z,22.86
2022-12-03T20:16:06.914Z,23.20
2022-12-03T20:18:35.437Z,23.69
2022-12-03T20:21:01.899Z,26.74
2022-12-03T20:23:28.410Z,26.40
2022-12-03T20:25:54.778Z,23.38
2022-12-03T20:28:21.177Z,25.00
2022-12-03T20:30:50.273Z,22.88
2022-12-03T20:33:16.702Z,22.31
2022-12-03T20:35:43.052Z,22.67
2022-12-03T20:38:09.453Z,21.87
2022-12-03T20:40:35.873Z,21.95
2022-12-03T20:43:02.292Z,23.14
2022-12-03T20:45:28.725Z,25.08
2022-12-03T20:47:55.216Z,25.93
2022-12-03T20:50:21.588Z,25.09
2022-12-03T20:53:09.410Z,24.27
2022-12-03T20:55:34.409Z,24.30
2022-12-03T20:58:02.171Z,22.44
2022-12-03T21:00:28.551Z,21.01
2022-12-03T21:02:55.007Z,21.24
2022-12-03T21:05:21.449Z,21.25
2022-12-03T21:07:48.010Z,21.72
2022-12-03T21:10:14.430Z,22.84
2022-12-03T21:12:40.793Z,24.30
2022-12-03T21:15:07.146Z,23.88
2022-12-03T21:17:33.712Z,26.08
2022-12-03T21:20:00.221Z,23.92
2022-12-03T21:22:26.607Z,21.66
2022-12-03T21:24:53.081Z,22.46
2022-12-03T21:27:21.795Z,24.36
2022-12-03T21:29:49.911Z,23.33
2022-12-03T21:32:16.275Z,23.87
2022-12-03T21:34:42.711Z,23.90
2022-12-03T21:37:09.322Z,23.30
2022-12-03T21:39:38.141Z,23.79
2022-12-03T21:42:22.260Z,23.66
2022-12-03T21:44:51.213Z,24.02
2022-12-03T21:47:18.813Z,25.43
2022-12-03T21:49:46.572Z,25.27
2022-12-03T21:52:12.991Z,25.16
2022-12-03T21:54:39.393Z,25.23
2022-12-03T21:57:05.759Z,23.38
2022-12-03T21:59:32.162Z,22.58
2022-12-03T22:01:58.601Z,22.19
2022-12-03T22:04:25.025Z,22.82
2022-12-03T22:06:51.593Z,23.01
2022-12-03T22:09:21.833Z,22.70
2022-12-03T22:11:52.652Z,22.84
2022-12-03T22:14:19.014Z,22.27
2022-12-03T22:16:45.456Z,23.55
2022-12-03T22:19:11.819Z,23.57
2022-12-03T22:21:39.798Z,23.45
2022-12-03T22:24:06.224Z,24.00
2022-12-03T22:26:35.149Z,24.95
2022-12-03T22:29:01.712Z,25.11
2022-12-03T22:31:28.175Z,26.20
2022-12-03T22:33:54.575Z,25.65
2022-12-03T22:36:21.902Z,25.80
2022-12-03T22:38:50.815Z,25.87
2022-12-03T22:41:17.189Z,25.81
2022-12-03T22:43:43.654Z,26.47
2022-12-03T22:46:10.557Z,25.63
2022-12-03T22:48:44.723Z,25.07
2022-12-03T22:51:11.329Z,25.41
2022-12-03T22:53:40.819Z,26.15
2022-12-03T22:56:07.262Z,25.82
2022-12-03T22:58:33.709Z,25.47
2022-12-03T23:01:03.133Z,24.98
2022-12-03T23:03:35.302Z,25.07
2022-12-03T23:06:02.183Z,25.17
2022-12-03T23:08:31.012Z,25.91
2022-12-03T23:10:57.376Z,25.25
2022-12-03T23:13:23.794Z,24.77
2022-12-03T23:15:50.216Z,24.87
2022-12-03T23:18:16.719Z,24.99
2022-12-03T23:20:43.124Z,26.40
2022-12-03T23:23:09.504Z,26.42
2022-12-03T23:25:38.332Z,26.14
2022-12-03T23:28:04.767Z,25.95
2022-12-03T23:30:31.178Z,25.17
2022-12-03T23:32:57.593Z,25.21
2022-12-03T23:35:23.963Z,25.04
2022-12-03T23:37:50.311Z,24.63
2022-12-03T23:40:17.643Z,25.51
2022-12-03T23:42:45.003Z,25.10
2022-12-03T23:45:14.139Z,24.88
2022-12-03T23:47:40.646Z,26.14
2022-12-03T23:50:07.025Z,26.83
2022-12-03T23:52:33.631Z,25.99
2022-12-03T23:54:59.992Z,25.70
2022-12-03T23:57:26.625Z,28.91
2022-12-03T23:59:53.464Z,33.96
